createdAt,value
2019-02-21T00:00:24.266Z,8.82
2019-02-21T00:02:54.634Z,9.03
2019-02-21T00:05:27.983Z,9.05
2019-02-21T00:07:58.376Z,8.87
2019-02-21T00:10:31.738Z,8.82
2019-02-21T00:13:02.588Z,8.70
2019-02-21T00:15:33.042Z,8.78
2019-02-21T00:18:03.931Z,8.64
2019-02-21T00:20:34.700Z,8.67
2019-02-21T00:23:05.532Z,8.68
2019-02-21T00:25:40.270Z,8.70
2019-02-21T00:28:11.310Z,8.80
2019-02-21T00:30:42.054Z,8.72
2019-02-21T00:33:13.539Z,8.78
2019-02-21T00:35:45.855Z,8.80
2019-02-21T00:38:17.010Z,8.86
2019-02-21T00:40:47.852Z,8.74
2019-02-21T00:43:20.405Z,8.70
2019-02-21T00:45:51.261Z,8.96
2019-02-21T00:48:22.174Z,8.86
2019-02-21T00:50:52.905Z,8.91
2019-02-21T00:53:23.655Z,8.82
2019-02-21T00:55:54.470Z,8.84
2019-02-21T00:58:26.810Z,8.98
2019-02-21T01:00:57.594Z,8.90
2019-02-21T01:03:28.352Z,8.92
2019-02-21T01:05:58.808Z,8.89
2019-02-21T01:08:29.473Z,8.92
2019-02-21T01:11:00.336Z,8.83
2019-02-21T01:13:31.167Z,9.04
2019-02-21T01:16:02.327Z,8.90
2019-02-21T01:18:33.137Z,9.12
2019-02-21T01:21:03.857Z,9.09
2019-02-21T01:23:34.282Z,9.02
2019-02-21T01:26:05.036Z,8.98
2019-02-21T01:28:35.768Z,9.06
2019-02-21T01:31:06.936Z,9.04
2019-02-21T01:33:37.850Z,8.90
2019-02-21T01:36:08.567Z,8.92
2019-02-21T01:38:41.693Z,8.88
2019-02-21T01:41:12.729Z,9.01
2019-02-21T01:43:43.520Z,8.99
2019-02-21T01:46:14.406Z,8.87
2019-02-21T01:48:45.342Z,8.96
2019-02-21T01:51:16.281Z,9.10
2019-02-21T01:53:46.766Z,8.95
2019-02-21T01:56:17.624Z,9.00
2019-02-21T01:58:48.191Z,8.91
2019-02-21T02:01:18.988Z,8.97
2019-02-21T02:03:50.340Z,9.00
2019-02-21T02:06:21.080Z,9.02
2019-02-21T02:08:51.936Z,9.11
2019-02-21T02:11:22.755Z,9.08
2019-02-21T02:13:56.500Z,9.06
2019-02-21T02:16:27.184Z,9.10
2019-02-21T02:18:58.017Z,9.09
2019-02-21T02:21:28.764Z,9.30
2019-02-21T02:23:59.587Z,9.31
2019-02-21T02:26:30.437Z,9.06
2019-02-21T02:29:02.895Z,9.15
2019-02-21T02:31:33.735Z,9.16
2019-02-21T02:34:04.575Z,9.08
2019-02-21T02:36:35.412Z,9.10
2019-02-21T02:39:06.566Z,8.98
2019-02-21T02:41:37.509Z,9.20
2019-02-21T02:44:08.326Z,8.96
2019-02-21T02:46:39.187Z,9.20
2019-02-21T02:49:09.941Z,9.06
2019-02-21T02:51:40.747Z,9.06
2019-02-21T02:54:11.596Z,9.19
2019-02-21T02:56:42.450Z,9.08
2019-02-21T02:59:13.469Z,8.93
2019-02-21T03:01:44.305Z,8.99
2019-02-21T03:04:15.284Z,9.04
2019-02-21T03:06:46.079Z,9.02
2019-02-21T03:09:16.916Z,9.10
2019-02-21T03:11:49.435Z,8.93
2019-02-21T03:14:20.532Z,9.01
2019-02-21T03:16:51.481Z,9.04
2019-02-21T03:19:22.103Z,8.94
2019-02-21T03:21:55.608Z,9.13
2019-02-21T03:24:26.527Z,9.10
2019-02-21T03:26:57.269Z,9.10
2019-02-21T03:29:28.109Z,9.12
2019-02-21T03:31:58.688Z,8.99
2019-02-21T03:34:29.469Z,8.94
2019-02-21T03:37:01.755Z,8.99
2019-02-21T03:39:32.197Z,9.04
2019-02-21T03:42:03.190Z,9.00
2019-02-21T03:44:33.725Z,8.88
2019-02-21T03:47:06.202Z,8.89
2019-02-21T03:49:36.585Z,8.87
2019-02-21T03:52:07.359Z,8.87
2019-02-21T03:54:37.899Z,8.98
2019-02-21T03:57:08.620Z,8.86
2019-02-21T03:59:39.463Z,8.81
2019-02-21T04:02:11.961Z,8.70
2019-02-21T04:04:42.675Z,8.79
2019-02-21T04:07:13.412Z,8.84
2019-02-21T04:09:43.911Z,8.84
2019-02-21T04:12:14.783Z,8.88
2019-02-21T04:14:45.627Z,8.79
2019-02-21T04:17:16.448Z,8.77
2019-02-21T04:19:47.187Z,8.74
2019-02-21T04:22:18.016Z,8.70
2019-02-21T04:24:48.870Z,8.60
2019-02-21T04:27:19.821Z,8.71
2019-02-21T04:29:50.953Z,8.72
2019-02-21T04:32:21.677Z,8.59
2019-02-21T04:34:52.650Z,8.66
2019-02-21T04:37:23.446Z,8.66
2019-02-21T04:39:54.193Z,8.56
2019-02-21T04:42:24.963Z,8.62
2019-02-21T04:44:56.207Z,8.52
2019-02-21T04:47:27.156Z,8.47
2019-02-21T04:49:57.978Z,8.66
2019-02-21T04:52:28.809Z,8.56
2019-02-21T04:54:59.863Z,8.56
2019-02-21T04:57:30.677Z,8.50
2019-02-21T05:00:01.575Z,8.57
2019-02-21T05:02:32.351Z,8.62
2019-02-21T05:05:03.049Z,8.50
2019-02-21T05:07:33.852Z,8.52
2019-02-21T05:10:06.182Z,8.54
2019-02-21T05:12:36.926Z,8.44
2019-02-21T05:15:07.861Z,8.47
2019-02-21T05:17:39.088Z,8.46
2019-02-21T05:20:09.536Z,8.48
2019-02-21T05:22:40.288Z,8.41
2019-02-21T05:25:11.114Z,8.38
2019-02-21T05:27:43.462Z,8.44
2019-02-21T05:30:15.869Z,8.34
2019-02-21T05:32:54.888Z,8.23
2019-02-21T05:35:26.992Z,8.19
2019-02-21T05:37:59.436Z,8.29
2019-02-21T05:40:34.569Z,8.18
2019-02-21T05:43:24.964Z,8.21
2019-02-21T05:46:12.572Z,8.06
2019-02-21T05:48:50.818Z,8.21
2019-02-21T05:51:23.170Z,8.27
2019-02-21T05:53:57.590Z,8.00
2019-02-21T05:56:30.079Z,8.06
2019-02-21T05:59:02.549Z,8.10
2019-02-21T06:01:43.606Z,8.22
2019-02-21T06:04:19.559Z,8.28
2019-02-21T06:07:09.882Z,8.41
2019-02-21T06:10:00.973Z,8.22
2019-02-21T06:12:34.174Z,8.42
2019-02-21T06:15:09.557Z,8.46
2019-02-21T06:17:42.604Z,8.34
2019-02-21T06:20:17.721Z,8.26
2019-02-21T06:23:04.036Z,8.28
2019-02-21T06:25:51.048Z,8.40
2019-02-21T06:28:16.934Z,8.40
2019-02-21T06:30:59.118Z,8.48
2019-02-21T06:33:30.836Z,8.46
2019-02-21T06:36:01.403Z,8.41
2019-02-21T06:38:33.642Z,8.46
2019-02-21T06:41:05.093Z,8.44
2019-02-21T06:43:35.582Z,8.64
2019-02-21T06:46:06.347Z,8.56
2019-02-21T06:48:37.603Z,8.52
2019-02-21T06:51:08.434Z,8.58
2019-02-21T06:53:39.575Z,8.60
2019-02-21T06:56:09.980Z,8.64
2019-02-21T06:58:42.193Z,8.74
2019-02-21T07:01:12.771Z,8.84
2019-02-21T07:03:43.678Z,8.88
2019-02-21T07:06:14.198Z,8.86
2019-02-21T07:08:45.889Z,8.95
2019-02-21T07:11:16.758Z,8.92
2019-02-21T07:13:47.616Z,9.02
2019-02-21T07:16:18.344Z,8.90
2019-02-21T07:18:49.199Z,9.10
2019-02-21T07:21:20.016Z,9.04
2019-02-21T07:23:50.819Z,8.97
2019-02-21T07:26:21.568Z,8.98
2019-02-21T07:28:52.300Z,8.94
2019-02-21T07:31:28.750Z,8.93
2019-02-21T07:33:55.229Z,8.92
2019-02-21T07:36:28.219Z,8.93
2019-02-21T07:39:13.879Z,8.99
2019-02-21T07:41:31.514Z,8.96
2019-02-21T07:44:11.613Z,9.02
2019-02-21T07:46:35.042Z,8.98
2019-02-21T07:49:05.869Z,9.01
2019-02-21T07:51:36.322Z,8.98
2019-02-21T07:54:07.135Z,8.90
2019-02-21T07:56:41.953Z,9.03
2019-02-21T07:59:12.263Z,9.01
2019-02-21T08:01:51.079Z,9.08
2019-02-21T08:04:22.161Z,8.94
2019-02-21T08:06:55.566Z,9.04
2019-02-21T08:09:34.078Z,9.01
2019-02-21T08:12:05.626Z,8.86
2019-02-21T08:14:36.449Z,8.96
2019-02-21T08:17:07.204Z,8.92
2019-02-21T08:19:39.246Z,8.90
2019-02-21T08:22:10.197Z,8.85
2019-02-21T08:24:41.038Z,8.74
2019-02-21T08:27:11.755Z,8.68
2019-02-21T08:29:42.281Z,8.76
2019-02-21T08:32:14.653Z,8.57
2019-02-21T08:34:48.285Z,8.66
2019-02-21T08:37:19.440Z,8.56
2019-02-21T08:39:50.391Z,8.53
2019-02-21T08:42:21.306Z,8.59
2019-02-21T08:44:54.779Z,8.61
2019-02-21T08:47:25.746Z,8.54
2019-02-21T08:49:56.579Z,8.60
2019-02-21T08:52:29.995Z,8.53
2019-02-21T08:55:00.650Z,8.67
2019-02-21T08:57:32.077Z,8.90
2019-02-21T09:00:02.835Z,8.96
2019-02-21T09:02:35.995Z,8.93
2019-02-21T09:05:12.701Z,8.86
2019-02-21T09:07:46.202Z,8.86
2019-02-21T09:10:16.379Z,9.01
2019-02-21T09:12:48.495Z,8.96
2019-02-21T09:15:19.790Z,8.84
2019-02-21T09:17:54.698Z,8.95
2019-02-21T09:20:25.577Z,8.93
2019-02-21T09:22:56.551Z,8.97
2019-02-21T09:25:27.444Z,8.98
2019-02-21T09:27:59.867Z,9.00
2019-02-21T09:30:30.938Z,8.95
2019-02-21T09:33:01.772Z,9.11
2019-02-21T09:35:32.727Z,9.13
2019-02-21T09:38:05.394Z,9.17
2019-02-21T09:40:43.521Z,9.26
2019-02-21T09:43:14.430Z,9.40
2019-02-21T09:45:45.184Z,9.48
2019-02-21T09:48:16.103Z,9.60
2019-02-21T09:50:46.493Z,9.51
2019-02-21T09:53:17.432Z,9.51
2019-02-21T09:55:50.300Z,9.45
2019-02-21T09:58:20.899Z,9.51
2019-02-21T10:00:51.864Z,9.44
2019-02-21T10:03:22.702Z,9.46
2019-02-21T10:05:53.748Z,9.49
2019-02-21T10:08:24.566Z,9.70
2019-02-21T10:10:55.913Z,9.76
2019-02-21T10:13:26.739Z,9.77
2019-02-21T10:15:57.433Z,9.84
2019-02-21T10:18:29.959Z,9.82
2019-02-21T10:21:00.991Z,9.90
2019-02-21T10:23:31.359Z,9.80
2019-02-21T10:26:02.162Z,9.78
2019-02-21T10:28:33.027Z,9.70
2019-02-21T10:31:04.089Z,9.70
2019-02-21T10:33:34.597Z,9.69
2019-02-21T10:36:05.463Z,9.64
2019-02-21T10:38:36.328Z,9.74
2019-02-21T10:41:08.855Z,9.78
2019-02-21T10:43:39.961Z,9.65
2019-02-21T10:46:10.897Z,9.76
2019-02-21T10:48:41.659Z,9.76
2019-02-21T10:51:12.567Z,9.87
2019-02-21T10:53:43.472Z,9.96
2019-02-21T10:56:15.865Z,9.92
2019-02-21T10:58:48.651Z,9.91
2019-02-21T11:01:20.007Z,10.15
2019-02-21T11:03:50.954Z,10.40
2019-02-21T11:06:22.939Z,10.53
2019-02-21T11:08:54.104Z,10.56
2019-02-21T11:11:25.394Z,10.46
2019-02-21T11:13:55.812Z,10.44
2019-02-21T11:16:26.605Z,10.50
2019-02-21T11:18:57.407Z,10.58
2019-02-21T11:21:27.822Z,10.51
2019-02-21T11:23:58.663Z,10.50
2019-02-21T11:26:29.395Z,10.53
2019-02-21T11:29:01.874Z,10.60
2019-02-21T11:31:34.160Z,10.81
2019-02-21T11:34:05.177Z,10.94
2019-02-21T11:36:36.634Z,11.06
2019-02-21T11:39:07.772Z,11.27
2019-02-21T11:41:39.062Z,11.16
2019-02-21T11:44:09.544Z,11.02
2019-02-21T11:46:40.507Z,10.91
2019-02-21T11:49:11.339Z,10.97
2019-02-21T11:51:42.066Z,10.94
2019-02-21T11:54:15.898Z,10.93
2019-02-21T11:56:45.580Z,10.97
2019-02-21T11:59:16.425Z,11.07
2019-02-21T12:01:46.876Z,11.16
2019-02-21T12:04:17.682Z,11.40
2019-02-21T12:06:48.414Z,11.61
2019-02-21T12:09:18.900Z,11.63
2019-02-21T12:11:49.429Z,11.73
2019-02-21T12:14:19.886Z,11.63
2019-02-21T12:16:50.736Z,11.66
2019-02-21T12:19:21.169Z,11.59
2019-02-21T12:21:59.164Z,11.52
2019-02-21T12:24:27.551Z,11.61
2019-02-21T12:26:58.315Z,11.52
2019-02-21T12:29:29.131Z,11.60
2019-02-21T12:31:59.991Z,11.60
2019-02-21T12:34:30.728Z,11.52
2019-02-21T12:37:01.565Z,11.51
2019-02-21T12:39:32.388Z,11.53
2019-02-21T12:42:03.414Z,11.45
2019-02-21T12:44:34.264Z,11.58
2019-02-21T12:47:05.516Z,11.58
2019-02-21T12:49:36.369Z,11.62
2019-02-21T12:52:06.874Z,11.60
2019-02-21T12:54:37.616Z,11.62
2019-02-21T12:57:08.547Z,11.69
2019-02-21T12:59:38.968Z,11.63
2019-02-21T13:02:09.824Z,11.55
2019-02-21T13:04:40.640Z,11.66
2019-02-21T13:07:11.422Z,11.72
2019-02-21T13:09:41.902Z,11.59
2019-02-21T13:12:16.334Z,11.63
2019-02-21T13:14:47.171Z,11.64
2019-02-21T13:17:18.146Z,11.66
2019-02-21T13:19:48.935Z,11.59
2019-02-21T13:22:19.992Z,11.65
2019-02-21T13:24:50.391Z,11.62
2019-02-21T13:27:21.404Z,11.72
2019-02-21T13:29:54.523Z,11.70
2019-02-21T13:32:24.856Z,11.74
2019-02-21T13:34:56.908Z,11.78
2019-02-21T13:37:29.308Z,11.83
2019-02-21T13:40:00.732Z,11.74
2019-02-21T13:42:33.566Z,11.77
2019-02-21T13:45:05.932Z,11.66
2019-02-21T13:47:39.117Z,11.62
2019-02-21T13:50:12.626Z,11.52
2019-02-21T13:52:43.148Z,11.52
2019-02-21T13:55:14.079Z,11.46
2019-02-21T13:57:44.800Z,11.49
2019-02-21T14:00:20.755Z,11.49
2019-02-21T14:02:51.497Z,11.51
2019-02-21T14:05:22.529Z,11.45
2019-02-21T14:07:53.284Z,11.52
2019-02-21T14:10:24.111Z,11.58
2019-02-21T14:12:55.029Z,11.48
2019-02-21T14:15:27.801Z,11.50
2019-02-21T14:17:58.663Z,11.54
2019-02-21T14:20:29.505Z,11.47
2019-02-21T14:23:00.366Z,11.35
2019-02-21T14:25:40.251Z,11.30
2019-02-21T14:28:03.671Z,11.15
2019-02-21T14:30:35.299Z,10.97
2019-02-21T14:33:06.031Z,10.78
2019-02-21T14:35:42.175Z,10.67
2019-02-21T14:38:13.031Z,10.64
2019-02-21T14:40:43.968Z,10.43
2019-02-21T14:43:17.041Z,10.49
2019-02-21T14:45:47.020Z,10.45
2019-02-21T14:48:21.289Z,10.46
2019-02-21T14:50:55.609Z,10.52
2019-02-21T14:53:26.366Z,10.46
2019-02-21T14:55:57.276Z,10.72
2019-02-21T14:58:28.121Z,10.78
2019-02-21T15:00:59.057Z,10.54
2019-02-21T15:03:29.530Z,10.74
2019-02-21T15:06:00.347Z,10.80
2019-02-21T15:08:30.803Z,10.76
2019-02-21T15:11:08.380Z,10.71
2019-02-21T15:13:33.745Z,10.80
2019-02-21T15:16:04.483Z,10.75
2019-02-21T15:18:35.315Z,10.84
2019-02-21T15:21:08.132Z,11.01
2019-02-21T15:23:39.032Z,11.02
2019-02-21T15:26:09.893Z,10.96
2019-02-21T15:28:40.849Z,10.98
2019-02-21T15:31:11.683Z,10.96
2019-02-21T15:33:42.591Z,10.97
2019-02-21T15:36:14.846Z,10.98
2019-02-21T15:38:47.980Z,11.17
2019-02-21T15:41:18.686Z,11.18
2019-02-21T15:43:49.550Z,11.20
2019-02-21T15:46:20.339Z,11.24
2019-02-21T15:48:55.942Z,11.20
2019-02-21T15:51:26.729Z,11.19
2019-02-21T15:53:57.480Z,11.10
2019-02-21T15:56:31.377Z,11.08
2019-02-21T15:59:02.794Z,11.28
2019-02-21T16:01:33.565Z,11.27
2019-02-21T16:04:03.999Z,11.23
2019-02-21T16:06:34.724Z,11.25
2019-02-21T16:09:15.963Z,11.28
2019-02-21T16:11:39.800Z,11.30
2019-02-21T16:14:11.774Z,11.47
2019-02-21T16:16:42.602Z,11.33
2019-02-21T16:19:13.439Z,11.29
2019-02-21T16:21:44.424Z,11.33
2019-02-21T16:24:15.197Z,11.35
2019-02-21T16:26:46.792Z,11.28
2019-02-21T16:29:18.119Z,11.20
2019-02-21T16:31:48.696Z,11.30
2019-02-21T16:34:19.119Z,11.20
2019-02-21T16:36:49.908Z,11.26
2019-02-21T16:39:23.557Z,11.34
2019-02-21T16:41:53.204Z,11.36
2019-02-21T16:44:23.940Z,11.36
2019-02-21T16:46:54.673Z,11.18
2019-02-21T16:49:25.501Z,11.24
2019-02-21T16:51:57.917Z,11.38
2019-02-21T16:54:28.351Z,11.34
2019-02-21T16:56:59.170Z,11.28
2019-02-21T16:59:32.810Z,11.30
2019-02-21T17:02:03.711Z,11.34
2019-02-21T17:04:34.211Z,11.27
2019-02-21T17:07:13.360Z,11.26
2019-02-21T17:09:40.145Z,11.23
2019-02-21T17:12:10.942Z,11.23
2019-02-21T17:14:41.902Z,11.20
2019-02-21T17:17:12.794Z,11.20
2019-02-21T17:19:43.546Z,11.26
2019-02-21T17:22:14.477Z,11.21
2019-02-21T17:24:45.430Z,11.30
2019-02-21T17:27:16.270Z,11.22
2019-02-21T17:29:47.141Z,11.23
2019-02-21T17:32:18.032Z,11.14
2019-02-21T17:34:48.878Z,11.24
2019-02-21T17:37:24.963Z,11.26
2019-02-21T17:39:54.536Z,11.19
2019-02-21T17:42:25.391Z,11.27
2019-02-21T17:44:56.227Z,11.24
2019-02-21T17:47:26.735Z,11.18
2019-02-21T17:49:57.587Z,11.10
2019-02-21T17:52:28.435Z,11.00
2019-02-21T17:54:59.260Z,10.88
2019-02-21T17:57:30.186Z,10.78
2019-02-21T18:00:00.944Z,10.58
2019-02-21T18:02:31.777Z,10.49
2019-02-21T18:05:02.554Z,10.40
2019-02-21T18:07:36.428Z,10.26
2019-02-21T18:10:09.000Z,10.11
2019-02-21T18:12:39.935Z,9.93
2019-02-21T18:15:13.421Z,9.94
2019-02-21T18:17:44.539Z,9.90
2019-02-21T18:20:16.476Z,9.86
2019-02-21T18:22:47.373Z,9.83
2019-02-21T18:25:21.283Z,9.86
2019-02-21T18:27:51.764Z,9.82
2019-02-21T18:30:22.570Z,9.84
2019-02-21T18:32:53.388Z,9.80
2019-02-21T18:35:24.222Z,9.76
2019-02-21T18:37:55.504Z,9.77
2019-02-21T18:40:27.470Z,9.82
2019-02-21T18:42:58.264Z,9.76
2019-02-21T18:45:30.428Z,9.78
2019-02-21T18:48:00.942Z,9.92
2019-02-21T18:50:38.279Z,9.80
2019-02-21T18:53:04.153Z,9.74
2019-02-21T18:55:34.745Z,9.79
2019-02-21T18:58:05.545Z,9.72
2019-02-21T19:00:36.472Z,9.70
2019-02-21T19:03:07.319Z,9.74
2019-02-21T19:05:38.594Z,9.73
2019-02-21T19:08:09.418Z,9.72
2019-02-21T19:10:39.951Z,9.70
2019-02-21T19:13:10.851Z,9.68
2019-02-21T19:15:41.600Z,9.68
2019-02-21T19:18:12.423Z,9.62
2019-02-21T19:20:44.807Z,9.72
2019-02-21T19:23:17.268Z,9.68
2019-02-21T19:25:48.272Z,9.70
2019-02-21T19:28:18.927Z,9.64
2019-02-21T19:30:52.863Z,9.70
2019-02-21T19:33:27.245Z,9.57
2019-02-21T19:36:00.078Z,9.50
2019-02-21T19:38:33.578Z,9.70
2019-02-21T19:41:05.835Z,9.62
2019-02-21T19:43:37.027Z,9.58
2019-02-21T19:46:07.813Z,9.56
2019-02-21T19:48:38.571Z,9.61
2019-02-21T19:51:10.376Z,9.58
2019-02-21T19:53:44.130Z,9.60
2019-02-21T19:56:14.959Z,9.63
2019-02-21T19:58:45.883Z,9.67
2019-02-21T20:01:16.985Z,9.57
2019-02-21T20:03:47.908Z,9.42
2019-02-21T20:06:18.839Z,9.53
2019-02-21T20:08:50.689Z,9.56
2019-02-21T20:11:43.370Z,9.58
2019-02-21T20:14:14.324Z,9.54
2019-02-21T20:16:58.234Z,9.46
2019-02-21T20:19:30.993Z,9.44
2019-02-21T20:22:21.677Z,9.45
2019-02-21T20:24:52.742Z,9.48
2019-02-21T20:27:24.591Z,9.48
2019-02-21T20:32:59.747Z,9.40
2019-02-21T20:35:32.952Z,9.47
2019-02-21T20:38:03.894Z,9.52
2019-02-21T20:40:34.830Z,9.52
2019-02-21T20:43:06.040Z,9.46
2019-02-21T20:45:53.552Z,9.40
2019-02-21T20:48:21.559Z,9.44
2019-02-21T20:50:56.810Z,9.52
2019-02-21T20:53:27.767Z,9.39
2019-02-21T20:55:58.893Z,9.53
2019-02-21T20:58:29.404Z,9.52
2019-02-21T21:01:00.775Z,9.52
2019-02-21T21:03:31.698Z,9.53
2019-02-21T21:06:02.976Z,9.45
2019-02-21T21:08:42.721Z,9.48
2019-02-21T21:11:07.069Z,9.50
2019-02-21T21:13:37.816Z,9.48
2019-02-21T21:16:08.398Z,9.41
2019-02-21T21:18:42.958Z,9.40
2019-02-21T21:21:13.495Z,9.38
2019-02-21T21:23:44.339Z,9.34
2019-02-21T21:26:15.480Z,9.28
2019-02-21T21:28:49.524Z,9.30
2019-02-21T21:31:20.420Z,9.32
2019-02-21T21:33:51.158Z,9.30
2019-02-21T21:36:22.123Z,9.32
2019-02-21T21:38:54.339Z,9.38
2019-02-21T21:41:27.117Z,9.35
2019-02-21T21:43:59.603Z,9.34
2019-02-21T21:46:31.700Z,9.38
2019-02-21T21:49:04.276Z,9.36
2019-02-21T21:51:35.282Z,9.43
2019-02-21T21:54:06.021Z,9.34
2019-02-21T21:56:36.826Z,9.43
2019-02-21T21:59:11.002Z,9.22
2019-02-21T22:01:42.122Z,9.28
2019-02-21T22:04:12.592Z,9.32
2019-02-21T22:06:45.761Z,9.26
2019-02-21T22:09:16.594Z,9.22
2019-02-21T22:11:47.734Z,9.34
2019-02-21T22:14:18.678Z,9.26
2019-02-21T22:16:52.652Z,9.19
2019-02-21T22:19:23.117Z,9.16
2019-02-21T22:21:53.974Z,9.38
2019-02-21T22:24:24.813Z,9.33
2019-02-21T22:26:57.740Z,9.26
2019-02-21T22:29:28.538Z,9.30
2019-02-21T22:31:59.654Z,9.26
2019-02-21T22:34:31.161Z,9.25
2019-02-21T22:37:03.785Z,9.22
2019-02-21T22:39:34.492Z,9.14
2019-02-21T22:42:05.520Z,9.22
2019-02-21T22:44:36.294Z,9.34
2019-02-21T22:47:08.636Z,9.20
2019-02-21T22:49:41.147Z,9.22
2019-02-21T22:52:11.986Z,9.17
2019-02-21T22:54:42.821Z,9.19
2019-02-21T22:57:15.968Z,9.10
2019-02-21T22:59:46.823Z,9.02
2019-02-21T23:02:20.854Z,9.00
2019-02-21T23:04:57.841Z,9.09
2019-02-21T23:07:31.379Z,9.02
2019-02-21T23:10:02.177Z,9.09
2019-02-21T23:12:33.201Z,9.03
2019-02-21T23:15:05.522Z,9.06
2019-02-21T23:17:40.525Z,9.08
2019-02-21T23:20:11.663Z,9.04
2019-02-21T23:22:42.640Z,9.08
2019-02-21T23:25:13.522Z,9.03
2019-02-21T23:27:44.395Z,9.00
2019-02-21T23:30:17.427Z,9.03
2019-02-21T23:32:49.712Z,8.95
2019-02-21T23:35:23.264Z,8.96
2019-02-21T23:37:53.630Z,8.93
2019-02-21T23:40:24.601Z,9.10
2019-02-21T23:42:55.421Z,8.98
2019-02-21T23:45:26.254Z,8.96
2019-02-21T23:47:57.007Z,8.96
2019-02-21T23:50:27.841Z,9.06
2019-02-21T23:52:58.668Z,9.00
2019-02-21T23:55:29.517Z,9.06
2019-02-21T23:57:59.978Z,8.92
